Terminal Aerodrome Forecast
Issued by NWS Cleveland, OH

Home | Current Version | Previous Version | Text Only | Print | Product List | Glossary Off
Versions: 1 2 3 4 5 6 7 8 9 10 11 12 13 14 15 16 17

000
FTUS41 KCLE 302300
TAFMFD
TAF
KMFD 302338Z 0100/0124 34007KT P6SM BKN008 OVC015
     FM010800 34005KT P6SM SCT008 OVC060
      TEMPO 0108/0112 4SM BR SCT060
     FM011200 35005KT P6SM SCT060
     FM011700 35010KT P6SM BKN050=

USA.gov is the U.S. government's official web portal to all federal, state and local government web resources and services.